sensor_id;sensor_type;location;lat;lon;timestamp;temperature;humidity
23499;DHT22;11926;48.120;11.562;2023-04-03T00:01:22;4.50;92.90
23499;DHT22;11926;48.120;11.562;2023-04-03T00:04:09;4.50;92.90
23499;DHT22;11926;48.120;11.562;2023-04-03T00:06:57;4.50;92.90
23499;DHT22;11926;48.120;11.562;2023-04-03T00:09:46;4.50;93.00
23499;DHT22;11926;48.120;11.562;2023-04-03T00:12:33;4.50;93.10
23499;DHT22;11926;48.120;11.562;2023-04-03T00:15:21;4.60;93.10
23499;DHT22;11926;48.120;11.562;2023-04-03T00:18:08;4.60;92.90
23499;DHT22;11926;48.120;11.562;2023-04-03T00:20:56;4.50;92.90
23499;DHT22;11926;48.120;11.562;2023-04-03T00:23:43;4.50;93.10
23499;DHT22;11926;48.120;11.562;2023-04-03T00:26:34;4.50;93.10
23499;DHT22;11926;48.120;11.562;2023-04-03T00:29:22;4.50;93.20
23499;DHT22;11926;48.120;11.562;2023-04-03T00:32:10;4.50;93.20
23499;DHT22;11926;48.120;11.562;2023-04-03T00:34:57;4.50;93.20
23499;DHT22;11926;48.120;11.562;2023-04-03T00:37:44;4.50;93.20
23499;DHT22;11926;48.120;11.562;2023-04-03T00:40:35;4.50;93.30
23499;DHT22;11926;48.120;11.562;2023-04-03T00:43:25;4.50;93.30
23499;DHT22;11926;48.120;11.562;2023-04-03T00:46:13;4.50;93.20
23499;DHT22;11926;48.120;11.562;2023-04-03T00:49:00;4.40;93.20
23499;DHT22;11926;48.120;11.562;2023-04-03T00:51:48;4.40;93.10
23499;DHT22;11926;48.120;11.562;2023-04-03T00:54:37;4.30;93.20
23499;DHT22;11926;48.120;11.562;2023-04-03T00:57:27;4.30;93.10
23499;DHT22;11926;48.120;11.562;2023-04-03T01:00:18;4.10;93.10
23499;DHT22;11926;48.120;11.562;2023-04-03T01:03:06;4.10;93.30
23499;DHT22;11926;48.120;11.562;2023-04-03T01:05:56;4.10;93.30
23499;DHT22;11926;48.120;11.562;2023-04-03T01:08:45;4.10;93.20
23499;DHT22;11926;48.120;11.562;2023-04-03T01:11:35;4.00;93.20
23499;DHT22;11926;48.120;11.562;2023-04-03T01:14:22;4.00;93.40
23499;DHT22;11926;48.120;11.562;2023-04-03T01:26:20;4.30;93.40
23499;DHT22;11926;48.120;11.562;2023-04-03T01:29:08;4.40;93.30
23499;DHT22;11926;48.120;11.562;2023-04-03T01:31:58;4.50;93.30
23499;DHT22;11926;48.120;11.562;2023-04-03T01:34:46;4.50;93.30
23499;DHT22;11926;48.120;11.562;2023-04-03T01:37:34;4.50;93.30
23499;DHT22;11926;48.120;11.562;2023-04-03T01:40:22;4.60;93.40
23499;DHT22;11926;48.120;11.562;2023-04-03T01:43:10;4.60;93.20
23499;DHT22;11926;48.120;11.562;2023-04-03T01:45:58;4.60;93.30
23499;DHT22;11926;48.120;11.562;2023-04-03T01:48:49;4.50;93.30
23499;DHT22;11926;48.120;11.562;2023-04-03T01:51:36;4.50;93.20
23499;DHT22;11926;48.120;11.562;2023-04-03T01:54:24;4.50;93.20
23499;DHT22;11926;48.120;11.562;2023-04-03T01:57:12;4.40;93.20
23499;DHT22;11926;48.120;11.562;2023-04-03T02:00:02;4.40;93.30
23499;DHT22;11926;48.120;11.562;2023-04-03T02:02:58;4.30;93.40
23499;DHT22;11926;48.120;11.562;2023-04-03T02:05:49;4.30;93.40
23499;DHT22;11926;48.120;11.562;2023-04-03T02:08:37;4.40;93.40
23499;DHT22;11926;48.120;11.562;2023-04-03T02:11:24;4.30;93.30
23499;DHT22;11926;48.120;11.562;2023-04-03T02:14:12;4.30;93.30
23499;DHT22;11926;48.120;11.562;2023-04-03T02:17:00;4.10;93.30
23499;DHT22;11926;48.120;11.562;2023-04-03T02:19:51;4.10;93.30
23499;DHT22;11926;48.120;11.562;2023-04-03T02:22:40;4.00;93.40
23499;DHT22;11926;48.120;11.562;2023-04-03T02:25:30;4.00;93.40
23499;DHT22;11926;48.120;11.562;2023-04-03T02:28:17;4.00;93.40
23499;DHT22;11926;48.120;11.562;2023-04-03T02:31:09;3.90;93.40
23499;DHT22;11926;48.120;11.562;2023-04-03T02:33:58;3.90;93.40
23499;DHT22;11926;48.120;11.562;2023-04-03T02:36:46;3.90;93.30
23499;DHT22;11926;48.120;11.562;2023-04-03T02:39:37;4.00;93.30
23499;DHT22;11926;48.120;11.562;2023-04-03T02:42:25;3.90;93.20
23499;DHT22;11926;48.120;11.562;2023-04-03T02:45:12;3.90;93.20
23499;DHT22;11926;48.120;11.562;2023-04-03T02:48:00;4.00;93.40
23499;DHT22;11926;48.120;11.562;2023-04-03T02:50:48;4.00;93.30
23499;DHT22;11926;48.120;11.562;2023-04-03T02:53:36;4.00;93.80
23499;DHT22;11926;48.120;11.562;2023-04-03T02:56:31;4.10;93.30
23499;DHT22;11926;48.120;11.562;2023-04-03T02:59:19;4.10;93.20
23499;DHT22;11926;48.120;11.562;2023-04-03T03:02:07;4.10;93.10
23499;DHT22;11926;48.120;11.562;2023-04-03T03:04:55;4.00;93.00
23499;DHT22;11926;48.120;11.562;2023-04-03T03:07:43;3.90;93.00
23499;DHT22;11926;48.120;11.562;2023-04-03T03:10:31;3.90;93.00
23499;DHT22;11926;48.120;11.562;2023-04-03T03:13:21;3.90;93.20
23499;DHT22;11926;48.120;11.562;2023-04-03T03:16:08;4.00;93.10
23499;DHT22;11926;48.120;11.562;2023-04-03T03:18:58;4.00;93.00
23499;DHT22;11926;48.120;11.562;2023-04-03T03:21:46;4.00;92.90
23499;DHT22;11926;48.120;11.562;2023-04-03T03:24:34;4.00;92.90
23499;DHT22;11926;48.120;11.562;2023-04-03T03:27:21;4.10;92.90
23499;DHT22;11926;48.120;11.562;2023-04-03T03:30:11;4.00;92.80
23499;DHT22;11926;48.120;11.562;2023-04-03T03:32:59;4.00;92.70
23499;DHT22;11926;48.120;11.562;2023-04-03T03:35:48;4.10;92.80
23499;DHT22;11926;48.120;11.562;2023-04-03T03:38:36;4.10;92.70
23499;DHT22;11926;48.120;11.562;2023-04-03T03:41:24;4.10;92.60
23499;DHT22;11926;48.120;11.562;2023-04-03T03:44:12;4.10;92.70
23499;DHT22;11926;48.120;11.562;2023-04-03T03:47:02;4.10;92.70
23499;DHT22;11926;48.120;11.562;2023-04-03T03:49:52;4.10;92.60
23499;DHT22;11926;48.120;11.562;2023-04-03T03:52:39;4.10;92.50
23499;DHT22;11926;48.120;11.562;2023-04-03T03:55:27;4.10;92.60
23499;DHT22;11926;48.120;11.562;2023-04-03T03:58:16;4.10;92.50
23499;DHT22;11926;48.120;11.562;2023-04-03T04:01:05;4.10;92.40
23499;DHT22;11926;48.120;11.562;2023-04-03T04:04:00;4.10;92.30
23499;DHT22;11926;48.120;11.562;2023-04-03T04:06:50;4.00;92.20
23499;DHT22;11926;48.120;11.562;2023-04-03T04:09:38;3.90;92.60
23499;DHT22;11926;48.120;11.562;2023-04-03T04:12:27;3.90;92.20
23499;DHT22;11926;48.120;11.562;2023-04-03T04:15:15;3.90;92.30
23499;DHT22;11926;48.120;11.562;2023-04-03T04:18:03;3.90;92.20
23499;DHT22;11926;48.120;11.562;2023-04-03T04:20:52;3.90;92.20
23499;DHT22;11926;48.120;11.562;2023-04-03T04:23:41;3.90;92.20
23499;DHT22;11926;48.120;11.562;2023-04-03T04:26:29;3.90;92.30
23499;DHT22;11926;48.120;11.562;2023-04-03T04:29:17;3.90;92.10
23499;DHT22;11926;48.120;11.562;2023-04-03T04:32:07;3.90;92.10
23499;DHT22;11926;48.120;11.562;2023-04-03T04:34:56;3.90;92.10
23499;DHT22;11926;48.120;11.562;2023-04-03T04:37:46;3.90;92.20
23499;DHT22;11926;48.120;11.562;2023-04-03T04:40:35;4.00;92.20
23499;DHT22;11926;48.120;11.562;2023-04-03T04:43:25;4.00;92.10
23499;DHT22;11926;48.120;11.562;2023-04-03T04:46:13;4.00;92.00
23499;DHT22;11926;48.120;11.562;2023-04-03T04:49:07;4.00;92.00
23499;DHT22;11926;48.120;11.562;2023-04-03T04:51:54;3.90;92.00
23499;DHT22;11926;48.120;11.562;2023-04-03T04:54:48;3.90;92.00
23499;DHT22;11926;48.120;11.562;2023-04-03T04:57:36;3.80;91.90
23499;DHT22;11926;48.120;11.562;2023-04-03T05:00:26;3.80;91.90
23499;DHT22;11926;48.120;11.562;2023-04-03T05:03:14;3.80;92.00
23499;DHT22;11926;48.120;11.562;2023-04-03T05:06:03;3.80;92.10
23499;DHT22;11926;48.120;11.562;2023-04-03T05:08:52;3.80;92.00
23499;DHT22;11926;48.120;11.562;2023-04-03T05:11:42;3.80;92.00
23499;DHT22;11926;48.120;11.562;2023-04-03T05:14:32;3.80;91.90
23499;DHT22;11926;48.120;11.562;2023-04-03T05:17:24;3.80;91.90
23499;DHT22;11926;48.120;11.562;2023-04-03T05:20:14;3.80;92.30
23499;DHT22;11926;48.120;11.562;2023-04-03T05:23:04;3.90;91.90
23499;DHT22;11926;48.120;11.562;2023-04-03T05:25:54;3.90;91.90
23499;DHT22;11926;48.120;11.562;2023-04-03T05:28:43;3.90;92.00
23499;DHT22;11926;48.120;11.562;2023-04-03T05:31:31;4.00;91.90
23499;DHT22;11926;48.120;11.562;2023-04-03T05:34:18;4.00;91.90
23499;DHT22;11926;48.120;11.562;2023-04-03T05:37:08;4.10;91.80
23499;DHT22;11926;48.120;11.562;2023-04-03T05:39:57;4.20;91.70
23499;DHT22;11926;48.120;11.562;2023-04-03T05:42:45;4.20;91.60
23499;DHT22;11926;48.120;11.562;2023-04-03T05:45:35;4.10;91.60
23499;DHT22;11926;48.120;11.562;2023-04-03T05:48:23;4.10;91.60
23499;DHT22;11926;48.120;11.562;2023-04-03T05:51:15;4.20;91.70
23499;DHT22;11926;48.120;11.562;2023-04-03T05:54:09;4.20;91.50
23499;DHT22;11926;48.120;11.562;2023-04-03T05:56:59;4.20;91.50
23499;DHT22;11926;48.120;11.562;2023-04-03T05:59:48;4.20;91.40
23499;DHT22;11926;48.120;11.562;2023-04-03T06:02:37;4.10;91.50
23499;DHT22;11926;48.120;11.562;2023-04-03T06:05:28;4.20;91.40
23499;DHT22;11926;48.120;11.562;2023-04-03T06:08:15;4.10;91.40
23499;DHT22;11926;48.120;11.562;2023-04-03T06:11:02;4.10;91.40
23499;DHT22;11926;48.120;11.562;2023-04-03T06:13:50;4.20;91.30
23499;DHT22;11926;48.120;11.562;2023-04-03T06:16:37;4.20;91.20
23499;DHT22;11926;48.120;11.562;2023-04-03T06:19:27;4.20;91.30
23499;DHT22;11926;48.120;11.562;2023-04-03T06:22:15;4.30;91.40
23499;DHT22;11926;48.120;11.562;2023-04-03T06:25:05;4.40;91.30
23499;DHT22;11926;48.120;11.562;2023-04-03T06:27:53;4.40;91.50
23499;DHT22;11926;48.120;11.562;2023-04-03T06:30:42;4.30;91.00
23499;DHT22;11926;48.120;11.562;2023-04-03T06:33:29;4.30;91.00
23499;DHT22;11926;48.120;11.562;2023-04-03T06:36:19;4.30;90.90
23499;DHT22;11926;48.120;11.562;2023-04-03T06:39:09;4.30;90.80
23499;DHT22;11926;48.120;11.562;2023-04-03T06:41:59;4.30;90.80
23499;DHT22;11926;48.120;11.562;2023-04-03T06:44:55;4.40;90.90
23499;DHT22;11926;48.120;11.562;2023-04-03T06:47:43;4.40;90.80
23499;DHT22;11926;48.120;11.562;2023-04-03T06:50:31;4.50;90.90
23499;DHT22;11926;48.120;11.562;2023-04-03T06:53:20;4.60;90.70
23499;DHT22;11926;48.120;11.562;2023-04-03T06:56:08;4.60;90.40
23499;DHT22;11926;48.120;11.562;2023-04-03T06:58:56;4.60;90.20
23499;DHT22;11926;48.120;11.562;2023-04-03T07:01:45;4.60;90.10
23499;DHT22;11926;48.120;11.562;2023-04-03T07:04:33;4.60;90.20
23499;DHT22;11926;48.120;11.562;2023-04-03T07:07:22;4.80;90.40
23499;DHT22;11926;48.120;11.562;2023-04-03T07:10:11;4.90;90.20
23499;DHT22;11926;48.120;11.562;2023-04-03T07:12:59;5.10;90.10
23499;DHT22;11926;48.120;11.562;2023-04-03T07:15:47;5.10;89.30
23499;DHT22;11926;48.120;11.562;2023-04-03T07:18:38;5.10;89.00
23499;DHT22;11926;48.120;11.562;2023-04-03T07:21:26;5.10;89.20
23499;DHT22;11926;48.120;11.562;2023-04-03T07:24:14;5.10;88.90
23499;DHT22;11926;48.120;11.562;2023-04-03T07:27:03;5.20;89.30
23499;DHT22;11926;48.120;11.562;2023-04-03T07:29:51;5.30;89.40
23499;DHT22;11926;48.120;11.562;2023-04-03T07:32:41;5.50;88.90
23499;DHT22;11926;48.120;11.562;2023-04-03T07:35:29;5.40;87.90
23499;DHT22;11926;48.120;11.562;2023-04-03T07:38:17;5.40;88.10
23499;DHT22;11926;48.120;11.562;2023-04-03T07:41:04;5.40;87.50
23499;DHT22;11926;48.120;11.562;2023-04-03T07:43:53;5.30;87.80
23499;DHT22;11926;48.120;11.562;2023-04-03T07:46:42;5.40;89.00
23499;DHT22;11926;48.120;11.562;2023-04-03T07:49:30;5.50;87.70
23499;DHT22;11926;48.120;11.562;2023-04-03T07:52:19;5.50;87.30
23499;DHT22;11926;48.120;11.562;2023-04-03T07:55:07;5.50;86.80
23499;DHT22;11926;48.120;11.562;2023-04-03T07:57:55;5.40;87.00
23499;DHT22;11926;48.120;11.562;2023-04-03T08:00:44;5.30;86.90
23499;DHT22;11926;48.120;11.562;2023-04-03T08:03:35;5.40;87.00
23499;DHT22;11926;48.120;11.562;2023-04-03T08:06:24;5.30;86.60
23499;DHT22;11926;48.120;11.562;2023-04-03T08:09:30;5.30;86.80
23499;DHT22;11926;48.120;11.562;2023-04-03T08:12:18;5.30;87.10
23499;DHT22;11926;48.120;11.562;2023-04-03T08:15:07;5.40;87.00
23499;DHT22;11926;48.120;11.562;2023-04-03T08:17:57;5.30;86.70
23499;DHT22;11926;48.120;11.562;2023-04-03T08:20:47;5.30;86.60
23499;DHT22;11926;48.120;11.562;2023-04-03T08:23:34;5.20;86.70
23499;DHT22;11926;48.120;11.562;2023-04-03T08:26:22;5.10;87.00
23499;DHT22;11926;48.120;11.562;2023-04-03T08:29:13;5.20;87.10
23499;DHT22;11926;48.120;11.562;2023-04-03T08:32:00;5.30;87.40
23499;DHT22;11926;48.120;11.562;2023-04-03T08:34:50;5.50;87.30
23499;DHT22;11926;48.120;11.562;2023-04-03T08:37:38;5.50;87.00
23499;DHT22;11926;48.120;11.562;2023-04-03T08:40:26;5.60;87.00
23499;DHT22;11926;48.120;11.562;2023-04-03T08:43:27;5.70;86.60
23499;DHT22;11926;48.120;11.562;2023-04-03T08:46:18;5.70;86.20
23499;DHT22;11926;48.120;11.562;2023-04-03T08:49:18;5.70;86.00
23499;DHT22;11926;48.120;11.562;2023-04-03T08:52:14;5.70;86.10
23499;DHT22;11926;48.120;11.562;2023-04-03T08:55:05;5.80;86.50
23499;DHT22;11926;48.120;11.562;2023-04-03T08:57:59;6.00;86.40
23499;DHT22;11926;48.120;11.562;2023-04-03T09:00:50;6.10;85.80
23499;DHT22;11926;48.120;11.562;2023-04-03T09:03:40;6.20;85.00
23499;DHT22;11926;48.120;11.562;2023-04-03T09:06:31;6.30;85.30
23499;DHT22;11926;48.120;11.562;2023-04-03T09:09:31;6.40;85.20
23499;DHT22;11926;48.120;11.562;2023-04-03T09:12:24;6.50;84.60
23499;DHT22;11926;48.120;11.562;2023-04-03T09:15:18;6.50;84.00
23499;DHT22;11926;48.120;11.562;2023-04-03T09:18:30;6.30;84.00
23499;DHT22;11926;48.120;11.562;2023-04-03T09:21:23;6.40;84.50
23499;DHT22;11926;48.120;11.562;2023-04-03T09:24:15;6.40;83.80
23499;DHT22;11926;48.120;11.562;2023-04-03T09:27:08;6.50;84.20
23499;DHT22;11926;48.120;11.562;2023-04-03T09:29:57;6.60;84.00
23499;DHT22;11926;48.120;11.562;2023-04-03T09:32:46;6.70;83.20
23499;DHT22;11926;48.120;11.562;2023-04-03T09:35:36;6.80;83.20
23499;DHT22;11926;48.120;11.562;2023-04-03T09:38:33;6.90;83.40
23499;DHT22;11926;48.120;11.562;2023-04-03T09:41:21;7.00;82.40
23499;DHT22;11926;48.120;11.562;2023-04-03T09:44:26;7.00;82.00
23499;DHT22;11926;48.120;11.562;2023-04-03T09:47:19;7.10;82.10
23499;DHT22;11926;48.120;11.562;2023-04-03T09:50:10;7.00;80.70
23499;DHT22;11926;48.120;11.562;2023-04-03T09:53:07;6.80;81.20
23499;DHT22;11926;48.120;11.562;2023-04-03T09:56:24;6.80;81.10
23499;DHT22;11926;48.120;11.562;2023-04-03T09:59:15;6.70;81.10
23499;DHT22;11926;48.120;11.562;2023-04-03T10:05:35;6.70;81.20
23499;DHT22;11926;48.120;11.562;2023-04-03T10:08:28;6.70;81.70
23499;DHT22;11926;48.120;11.562;2023-04-03T10:11:17;6.80;80.80
23499;DHT22;11926;48.120;11.562;2023-04-03T10:14:10;6.80;80.60
23499;DHT22;11926;48.120;11.562;2023-04-03T10:17:16;6.80;80.20
23499;DHT22;11926;48.120;11.562;2023-04-03T10:20:17;6.90;80.00
23499;DHT22;11926;48.120;11.562;2023-04-03T10:23:17;6.90;80.20
23499;DHT22;11926;48.120;11.562;2023-04-03T10:26:14;6.90;79.50
23499;DHT22;11926;48.120;11.562;2023-04-03T10:29:10;6.80;79.90
23499;DHT22;11926;48.120;11.562;2023-04-03T10:32:18;6.80;79.90
23499;DHT22;11926;48.120;11.562;2023-04-03T10:35:13;6.80;79.80
23499;DHT22;11926;48.120;11.562;2023-04-03T10:38:11;6.70;80.00
23499;DHT22;11926;48.120;11.562;2023-04-03T10:41:07;6.60;80.30
23499;DHT22;11926;48.120;11.562;2023-04-03T10:44:07;6.60;80.40
23499;DHT22;11926;48.120;11.562;2023-04-03T10:47:04;6.50;79.80
23499;DHT22;11926;48.120;11.562;2023-04-03T10:50:00;6.40;79.80
23499;DHT22;11926;48.120;11.562;2023-04-03T10:52:57;6.30;80.60
23499;DHT22;11926;48.120;11.562;2023-04-03T10:55:53;6.30;80.30
23499;DHT22;11926;48.120;11.562;2023-04-03T10:58:44;6.00;80.10
23499;DHT22;11926;48.120;11.562;2023-04-03T11:01:34;5.80;80.60
23499;DHT22;11926;48.120;11.562;2023-04-03T11:04:26;5.70;81.50
23499;DHT22;11926;48.120;11.562;2023-04-03T11:07:19;5.60;82.20
23499;DHT22;11926;48.120;11.562;2023-04-03T11:10:13;5.50;83.10
23499;DHT22;11926;48.120;11.562;2023-04-03T11:13:08;5.40;83.70
23499;DHT22;11926;48.120;11.562;2023-04-03T11:15:59;5.30;84.40
23499;DHT22;11926;48.120;11.562;2023-04-03T11:18:52;5.20;84.80
23499;DHT22;11926;48.120;11.562;2023-04-03T11:21:46;5.20;85.10
23499;DHT22;11926;48.120;11.562;2023-04-03T11:24:42;5.30;85.50
23499;DHT22;11926;48.120;11.562;2023-04-03T11:27:38;5.30;85.30
23499;DHT22;11926;48.120;11.562;2023-04-03T11:30:31;5.40;85.20
23499;DHT22;11926;48.120;11.562;2023-04-03T11:33:28;5.50;85.10
23499;DHT22;11926;48.120;11.562;2023-04-03T11:36:22;5.80;85.30
23499;DHT22;11926;48.120;11.562;2023-04-03T11:39:25;6.20;84.80
23499;DHT22;11926;48.120;11.562;2023-04-03T11:42:24;6.40;83.50
23499;DHT22;11926;48.120;11.562;2023-04-03T11:45:31;6.70;82.40
23499;DHT22;11926;48.120;11.562;2023-04-03T11:51:42;6.40;79.30
23499;DHT22;11926;48.120;11.562;2023-04-03T11:54:47;6.40;79.10
23499;DHT22;11926;48.120;11.562;2023-04-03T11:58:03;6.50;79.10
23499;DHT22;11926;48.120;11.562;2023-04-03T12:00:56;6.60;78.50
23499;DHT22;11926;48.120;11.562;2023-04-03T12:04:08;6.80;77.70
23499;DHT22;11926;48.120;11.562;2023-04-03T12:07:12;6.90;76.70
23499;DHT22;11926;48.120;11.562;2023-04-03T12:10:02;6.90;75.10
23499;DHT22;11926;48.120;11.562;2023-04-03T12:13:00;6.90;74.40
23499;DHT22;11926;48.120;11.562;2023-04-03T12:15:52;6.90;74.20
23499;DHT22;11926;48.120;11.562;2023-04-03T12:18:44;7.00;73.70
23499;DHT22;11926;48.120;11.562;2023-04-03T12:27:41;7.10;72.40
23499;DHT22;11926;48.120;11.562;2023-04-03T12:30:31;7.20;72.70
23499;DHT22;11926;48.120;11.562;2023-04-03T12:33:27;7.40;72.60
23499;DHT22;11926;48.120;11.562;2023-04-03T12:36:25;7.40;70.90
23499;DHT22;11926;48.120;11.562;2023-04-03T12:39:23;7.40;70.10
23499;DHT22;11926;48.120;11.562;2023-04-03T12:42:29;7.20;69.30
23499;DHT22;11926;48.120;11.562;2023-04-03T12:45:22;7.20;69.60
23499;DHT22;11926;48.120;11.562;2023-04-03T12:48:15;7.20;69.50
23499;DHT22;11926;48.120;11.562;2023-04-03T12:51:04;7.20;69.30
23499;DHT22;11926;48.120;11.562;2023-04-03T12:53:58;7.30;70.30
23499;DHT22;11926;48.120;11.562;2023-04-03T12:56:48;7.70;70.10
23499;DHT22;11926;48.120;11.562;2023-04-03T12:59:36;7.90;69.30
23499;DHT22;11926;48.120;11.562;2023-04-03T13:02:27;8.00;68.20
23499;DHT22;11926;48.120;11.562;2023-04-03T13:05:18;7.90;67.70
23499;DHT22;11926;48.120;11.562;2023-04-03T13:08:12;7.90;67.10
23499;DHT22;11926;48.120;11.562;2023-04-03T13:11:04;7.80;67.10
23499;DHT22;11926;48.120;11.562;2023-04-03T13:13:56;7.90;67.50
23499;DHT22;11926;48.120;11.562;2023-04-03T13:16:54;7.90;66.10
23499;DHT22;11926;48.120;11.562;2023-04-03T13:19:42;7.80;65.20
23499;DHT22;11926;48.120;11.562;2023-04-03T13:22:35;7.80;65.20
23499;DHT22;11926;48.120;11.562;2023-04-03T13:25:30;7.70;64.60
23499;DHT22;11926;48.120;11.562;2023-04-03T13:28:21;7.70;64.30
23499;DHT22;11926;48.120;11.562;2023-04-03T13:31:19;7.80;64.30
23499;DHT22;11926;48.120;11.562;2023-04-03T13:34:13;7.90;63.30
23499;DHT22;11926;48.120;11.562;2023-04-03T13:37:05;8.00;63.00
23499;DHT22;11926;48.120;11.562;2023-04-03T13:40:03;8.00;62.10
23499;DHT22;11926;48.120;11.562;2023-04-03T13:43:01;8.00;61.70
23499;DHT22;11926;48.120;11.562;2023-04-03T15:19:36;8.20;57.00
23499;DHT22;11926;48.120;11.562;2023-04-03T15:22:26;8.10;57.50
23499;DHT22;11926;48.120;11.562;2023-04-03T15:25:13;8.00;57.70
23499;DHT22;11926;48.120;11.562;2023-04-03T15:28:02;8.00;57.20
23499;DHT22;11926;48.120;11.562;2023-04-03T15:30:50;7.80;57.00
23499;DHT22;11926;48.120;11.562;2023-04-03T15:33:39;7.80;56.70
23499;DHT22;11926;48.120;11.562;2023-04-03T15:36:26;7.70;56.40
23499;DHT22;11926;48.120;11.562;2023-04-03T15:39:21;7.60;55.90
23499;DHT22;11926;48.120;11.562;2023-04-03T15:42:10;7.40;55.50
23499;DHT22;11926;48.120;11.562;2023-04-03T15:44:59;7.20;55.70
23499;DHT22;11926;48.120;11.562;2023-04-03T15:47:47;7.20;55.80
23499;DHT22;11926;48.120;11.562;2023-04-03T15:50:35;7.10;55.80
23499;DHT22;11926;48.120;11.562;2023-04-03T15:53:23;7.10;55.80
23499;DHT22;11926;48.120;11.562;2023-04-03T15:56:12;7.10;55.40
23499;DHT22;11926;48.120;11.562;2023-04-03T15:59:01;7.10;55.20
23499;DHT22;11926;48.120;11.562;2023-04-03T16:01:51;7.10;54.80
23499;DHT22;11926;48.120;11.562;2023-04-03T16:04:42;7.10;54.60
23499;DHT22;11926;48.120;11.562;2023-04-03T16:07:33;7.10;54.80
23499;DHT22;11926;48.120;11.562;2023-04-03T16:10:20;7.00;54.60
23499;DHT22;11926;48.120;11.562;2023-04-03T16:13:10;7.00;54.80
23499;DHT22;11926;48.120;11.562;2023-04-03T16:15:57;7.10;54.90
23499;DHT22;11926;48.120;11.562;2023-04-03T16:18:46;7.20;55.70
23499;DHT22;11926;48.120;11.562;2023-04-03T16:21:34;7.20;55.50
23499;DHT22;11926;48.120;11.562;2023-04-03T16:24:21;7.20;55.50
23499;DHT22;11926;48.120;11.562;2023-04-03T16:27:09;7.20;55.30
23499;DHT22;11926;48.120;11.562;2023-04-03T16:29:58;7.10;55.10
23499;DHT22;11926;48.120;11.562;2023-04-03T16:32:46;6.90;54.60
23499;DHT22;11926;48.120;11.562;2023-04-03T16:35:33;6.80;55.00
23499;DHT22;11926;48.120;11.562;2023-04-03T16:38:22;6.80;55.10
23499;DHT22;11926;48.120;11.562;2023-04-03T16:41:10;6.60;54.90
23499;DHT22;11926;48.120;11.562;2023-04-03T16:43:57;6.50;54.80
23499;DHT22;11926;48.120;11.562;2023-04-03T16:46:46;6.50;55.00
23499;DHT22;11926;48.120;11.562;2023-04-03T16:49:34;6.30;54.80
23499;DHT22;11926;48.120;11.562;2023-04-03T16:52:22;6.30;54.80
23499;DHT22;11926;48.120;11.562;2023-04-03T16:55:10;6.20;54.80
23499;DHT22;11926;48.120;11.562;2023-04-03T16:57:57;6.20;55.50
23499;DHT22;11926;48.120;11.562;2023-04-03T17:00:44;6.20;55.70
23499;DHT22;11926;48.120;11.562;2023-04-03T17:03:35;6.20;55.40
23499;DHT22;11926;48.120;11.562;2023-04-03T17:06:23;6.20;55.50
23499;DHT22;11926;48.120;11.562;2023-04-03T17:09:11;6.10;55.50
23499;DHT22;11926;48.120;11.562;2023-04-03T17:11:58;6.10;55.70
23499;DHT22;11926;48.120;11.562;2023-04-03T17:14:46;6.10;56.10
23499;DHT22;11926;48.120;11.562;2023-04-03T17:17:34;6.10;56.20
23499;DHT22;11926;48.120;11.562;2023-04-03T17:20:23;6.20;56.40
23499;DHT22;11926;48.120;11.562;2023-04-03T17:23:11;6.20;56.70
23499;DHT22;11926;48.120;11.562;2023-04-03T17:25:58;6.10;56.60
23499;DHT22;11926;48.120;11.562;2023-04-03T17:28:46;6.10;56.80
23499;DHT22;11926;48.120;11.562;2023-04-03T17:31:34;6.00;57.10
23499;DHT22;11926;48.120;11.562;2023-04-03T17:34:22;6.00;57.30
23499;DHT22;11926;48.120;11.562;2023-04-03T17:37:11;6.00;57.60
23499;DHT22;11926;48.120;11.562;2023-04-03T17:39:59;5.90;57.60
23499;DHT22;11926;48.120;11.562;2023-04-03T17:42:46;5.90;57.90
23499;DHT22;11926;48.120;11.562;2023-04-03T17:45:34;5.90;58.10
23499;DHT22;11926;48.120;11.562;2023-04-03T17:48:23;5.80;58.40
23499;DHT22;11926;48.120;11.562;2023-04-03T17:51:16;5.80;58.60
23499;DHT22;11926;48.120;11.562;2023-04-03T17:54:07;5.60;58.70
23499;DHT22;11926;48.120;11.562;2023-04-03T17:56:54;5.50;59.00
23499;DHT22;11926;48.120;11.562;2023-04-03T17:59:42;5.40;59.20
23499;DHT22;11926;48.120;11.562;2023-04-03T18:02:29;5.30;59.30
23499;DHT22;11926;48.120;11.562;2023-04-03T18:05:17;5.30;59.70
23499;DHT22;11926;48.120;11.562;2023-04-03T18:08:06;5.20;59.80
23499;DHT22;11926;48.120;11.562;2023-04-03T18:10:55;5.20;60.00
23499;DHT22;11926;48.120;11.562;2023-04-03T18:13:43;5.20;60.40
23499;DHT22;11926;48.120;11.562;2023-04-03T18:16:31;5.20;60.30
23499;DHT22;11926;48.120;11.562;2023-04-03T18:19:19;5.20;60.80
23499;DHT22;11926;48.120;11.562;2023-04-03T18:22:12;5.20;61.00
23499;DHT22;11926;48.120;11.562;2023-04-03T18:25:01;5.10;60.70
23499;DHT22;11926;48.120;11.562;2023-04-03T18:27:50;5.00;60.90
23499;DHT22;11926;48.120;11.562;2023-04-03T18:30:38;5.00;61.00
23499;DHT22;11926;48.120;11.562;2023-04-03T18:33:28;5.00;61.10
23499;DHT22;11926;48.120;11.562;2023-04-03T18:36:16;5.00;61.50
23499;DHT22;11926;48.120;11.562;2023-04-03T18:39:03;4.90;61.50
23499;DHT22;11926;48.120;11.562;2023-04-03T18:41:51;4.90;61.40
23499;DHT22;11926;48.120;11.562;2023-04-03T18:44:43;4.80;61.40
23499;DHT22;11926;48.120;11.562;2023-04-03T18:47:32;4.80;61.60
23499;DHT22;11926;48.120;11.562;2023-04-03T18:50:22;4.70;61.80
23499;DHT22;11926;48.120;11.562;2023-04-03T18:53:10;4.60;61.90
23499;DHT22;11926;48.120;11.562;2023-04-03T18:55:57;4.60;62.40
23499;DHT22;11926;48.120;11.562;2023-04-03T18:58:45;4.50;62.50
23499;DHT22;11926;48.120;11.562;2023-04-03T19:01:35;4.50;62.90
23499;DHT22;11926;48.120;11.562;2023-04-03T19:04:23;4.40;63.10
23499;DHT22;11926;48.120;11.562;2023-04-03T19:07:11;4.40;63.30
23499;DHT22;11926;48.120;11.562;2023-04-03T19:09:59;4.30;63.30
23499;DHT22;11926;48.120;11.562;2023-04-03T19:12:48;4.30;63.70
23499;DHT22;11926;48.120;11.562;2023-04-03T19:15:36;4.30;64.00
23499;DHT22;11926;48.120;11.562;2023-04-03T19:18:25;4.20;64.30
23499;DHT22;11926;48.120;11.562;2023-04-03T19:21:13;4.20;64.40
23499;DHT22;11926;48.120;11.562;2023-04-03T19:24:01;4.20;64.80
23499;DHT22;11926;48.120;11.562;2023-04-03T19:26:49;4.10;64.80
23499;DHT22;11926;48.120;11.562;2023-04-03T19:29:36;4.00;65.00
23499;DHT22;11926;48.120;11.562;2023-04-03T19:32:23;4.00;65.40
23499;DHT22;11926;48.120;11.562;2023-04-03T19:35:13;3.90;65.60
23499;DHT22;11926;48.120;11.562;2023-04-03T19:38:00;3.80;65.70
23499;DHT22;11926;48.120;11.562;2023-04-03T19:40:48;3.80;66.10
23499;DHT22;11926;48.120;11.562;2023-04-03T19:43:36;3.70;66.20
23499;DHT22;11926;48.120;11.562;2023-04-03T19:46:24;3.70;66.40
23499;DHT22;11926;48.120;11.562;2023-04-03T19:49:12;3.60;66.50
23499;DHT22;11926;48.120;11.562;2023-04-03T19:52:02;3.50;66.80